Terminal Aerodrome Forecast
Issued by NWS

Home | Current Version | Previous Version | Text Only | Print | Product List | Glossary On
Versions: 1 2 3 4 5 6 7 8 9 10 11 12 13 14 15 16 17
000
FTUS46 KSTO 300900 AAC
TAFSAC
TAF AMD
KSAC 300943Z 3010/3106 00000KT 1SM BR BCFG FEW002
     FM301200 00000KT 1/4SM FG OVC001
     FM301800 33005KT P6SM SKC
     FM302100 33010G20KT P6SM FEW150
     FM310300 33010KT P6SM SKC=

USA.gov is the U.S. government's official web portal to all federal, state and local government web resources and services.